Time;durP1;ratioP1;P1;durP2;ratioP2;P2;SDS_P1;SDS_P2;PMS_P1;PMS_P2;Temp;Humidity;BMP_temperature;BMP_pressure;BME280_temperature;BME280_humidity;BME280_pressure;Samples;Min_cycle;Max_cycle;Signal;HPM_P1;HPM_P2
2022/01/21 00:00:13;;;;;;;4.93;1.20;;;;;;;-2.65;72.00;101780.00;5034286;28;20040;-77
2022/01/21 00:02:38;;;;;;;3.53;1.30;;;;;;;-2.63;71.63;101767.72;5034617;28;20074;-75
2022/01/21 00:05:05;;;;;;;7.88;2.13;;;;;;;-2.65;71.61;101749.47;5050802;28;20053;-77
2022/01/21 00:07:30;;;;;;;6.43;1.25;;;;;;;-2.69;71.83;101747.00;5050896;28;20024;-76
2022/01/21 00:09:56;;;;;;;7.28;1.17;;;;;;;-2.64;71.87;101774.72;5033511;28;20047;-77
2022/01/21 00:12:22;;;;;;;6.35;1.10;;;;;;;-2.70;72.18;101788.00;5050778;28;20063;-78
2022/01/21 00:14:47;;;;;;;13.50;2.83;;;;;;;-2.78;72.12;101764.75;5050346;28;20124;-76
2022/01/21 00:17:15;;;;;;;2.53;1.40;;;;;;;-2.68;72.15;101801.88;5034354;28;20564;-75
2022/01/21 00:19:44;;;;;;;6.60;1.20;;;;;;;-2.61;72.01;101803.38;5034392;28;20059;-78
2022/01/21 00:30:24;;;;;;;2.25;0.70;;;;;;;-2.90;73.64;101833.09;5052057;28;20033;-78
2022/01/21 00:32:50;;;;;;;3.30;1.10;;;;;;;-3.03;74.49;101874.44;5033924;28;20120;-78
2022/01/21 00:35:17;;;;;;;6.47;1.30;;;;;;;-3.00;75.48;101931.84;5032145;28;20059;-78
2022/01/21 00:37:43;;;;;;;4.07;1.27;;;;;;;-2.94;75.94;101972.59;5047123;28;20170;-77
2022/01/21 00:40:13;;;;;;;4.57;1.25;;;;;;;-3.04;76.36;101977.25;5030744;28;20060;-77
2022/01/21 00:45:09;;;;;;;14.82;1.83;;;;;;;-3.05;76.97;102006.88;5048134;28;20027;-77
2022/01/21 00:47:34;;;;;;;4.65;0.88;;;;;;;-3.04;77.56;102032.13;5048318;28;20043;-76
2022/01/21 00:50:00;;;;;;;9.70;1.60;;;;;;;-3.16;77.66;102021.16;5047895;28;20466;-78
2022/01/21 00:52:25;;;;;;;6.70;1.40;;;;;;;-3.20;78.00;102023.84;5048691;28;20056;-78
2022/01/21 00:54:51;;;;;;;7.65;1.70;;;;;;;-3.21;78.52;102040.44;5030856;28;20090;-79
2022/01/21 00:57:16;;;;;;;5.90;1.80;;;;;;;-3.19;78.50;102050.81;5049536;28;20706;-78
2022/01/21 00:59:41;;;;;;;11.15;1.55;;;;;;;-3.14;78.69;102067.22;5031466;28;20021;-78
2022/01/21 01:02:07;;;;;;;8.13;1.55;;;;;;;-3.10;78.84;102055.81;5048046;28;20033;-79
2022/01/21 01:04:32;;;;;;;4.43;1.83;;;;;;;-3.02;78.81;102063.41;5049362;28;20075;-76
2022/01/21 01:07:00;;;;;;;5.10;1.42;;;;;;;-3.05;78.67;102038.22;5031910;28;20471;-78
2022/01/21 01:09:26;;;;;;;7.68;1.40;;;;;;;-3.06;78.60;102035.69;5031971;28;20027;-78
2022/01/21 01:19:58;;;;;;;5.70;1.25;;;;;;;-3.13;79.28;102066.34;5048827;28;20036;-77
2022/01/21 01:28:16;;;;;;;8.30;1.83;;;;;;;-2.96;78.49;102021.44;5019025;28;20036;-78
2022/01/21 01:30:42;;;;;;;4.53;1.75;;;;;;;-3.03;78.39;102006.84;5001732;28;20029;-77
2022/01/21 01:33:10;;;;;;;8.13;1.55;;;;;;;-3.01;79.03;102020.72;5012740;28;20910;-79
2022/01/21 01:35:36;;;;;;;6.30;1.80;;;;;;;-3.07;79.12;102037.41;5031378;28;20041;-78
2022/01/21 01:40:59;;;;;;;;;;;;;;;-3.09;79.84;102065.38;5048019;28;20114;-77
2022/01/21 01:51:23;;;;;;;14.27;1.40;;;;;;;-3.08;79.79;102027.88;5054413;28;20037;-77
2022/01/21 01:53:59;;;;;;;10.85;1.50;;;;;;;-3.13;80.11;102021.94;5054446;28;20037;-78
2022/01/21 01:56:29;;;;;;;8.18;1.73;;;;;;;-3.17;80.34;102033.38;5056046;28;20128;-78
2022/01/21 01:58:54;;;;;;;11.80;2.75;;;;;;;-3.09;80.38;102031.41;5055817;28;20096;-78
2022/01/21 02:01:20;;;;;;;4.82;2.25;;;;;;;-3.10;80.26;102024.44;5055305;28;20064;-78
2022/01/21 02:03:45;;;;;;;9.93;3.72;;;;;;;-3.12;80.32;102014.94;5050377;28;20032;-79
2022/01/21 02:06:11;;;;;;;8.55;1.30;;;;;;;-3.09;80.27;102009.63;5038707;28;20040;-78
2022/01/21 02:08:36;;;;;;;5.35;1.55;;;;;;;-3.11;80.56;102012.31;5055458;28;20037;-78
2022/01/21 02:11:03;;;;;;;6.85;1.20;;;;;;;-3.17;80.26;102014.22;5034836;28;20037;-78
2022/01/21 02:13:31;;;;;;;;;;;;;;;-3.20;80.54;102023.84;5049219;28;20091;-76
2022/01/21 02:16:01;;;;;;;4.32;2.38;;;;;;;-3.23;81.00;102033.53;5052446;28;20047;-76
2022/01/21 02:21:35;;;;;;;18.60;1.52;;;;;;;-3.30;81.90;102069.44;5052994;28;20379;-76
2022/01/21 02:24:04;;;;;;;6.03;1.88;;;;;;;-3.27;82.17;102084.16;5045538;28;20029;-77
2022/01/21 02:26:30;;;;;;;6.95;1.30;;;;;;;-3.29;82.42;102083.34;5032751;28;20041;-76
2022/01/21 02:28:58;;;;;;;5.88;1.50;;;;;;;-3.27;82.76;102099.81;5035705;28;20029;-78
2022/01/21 02:31:23;;;;;;;13.77;1.60;;;;;;;-3.32;83.03;102091.25;5036212;28;20033;-76
2022/01/21 02:33:49;;;;;;;11.90;2.45;;;;;;;-3.22;83.09;102090.09;5035752;28;20346;-77
2022/01/21 02:36:14;;;;;;;5.85;1.20;;;;;;;-3.19;83.14;102084.78;5052764;28;20028;-78
2022/01/21 02:38:40;;;;;;;9.23;2.05;;;;;;;-3.04;83.26;102096.59;5033000;28;20115;-75
2022/01/21 02:41:06;;;;;;;11.73;2.22;;;;;;;-3.04;83.19;102066.09;5051924;28;20033;-79
2022/01/21 02:43:31;;;;;;;6.68;1.75;;;;;;;-3.01;83.04;102060.78;5053007;28;20029;-78
2022/01/21 02:46:03;;;;;;;6.63;1.73;;;;;;;-3.02;82.90;102053.84;5036100;28;20017;-78
2022/01/21 02:48:28;;;;;;;5.97;1.65;;;;;;;-2.97;83.13;102051.94;5032943;28;20037;-78
2022/01/21 02:50:54;;;;;;;5.25;1.58;;;;;;;-2.93;82.93;102052.69;5043846;28;21014;-78
2022/01/21 02:55:49;;;;;;;7.85;1.13;;;;;;;-3.01;83.34;102045.09;5049375;28;20029;-77
2022/01/21 02:58:14;;;;;;;14.25;1.67;;;;;;;-2.98;83.46;102052.00;5049236;28;20032;-77
2022/01/21 03:00:40;;;;;;;8.43;1.92;;;;;;;-2.96;83.40;102063.25;5033121;28;20048;-75
2022/01/21 03:03:06;;;;;;;13.13;2.35;;;;;;;-2.95;83.59;102067.59;5033629;28;20009;-78
2022/01/21 03:05:34;;;;;;;8.73;2.40;;;;;;;-3.00;84.02;102062.50;5033027;28;20098;-78
2022/01/21 03:08:00;;;;;;;10.05;1.30;;;;;;;-2.86;83.99;102080.38;5032858;28;20044;-77
2022/01/21 03:10:26;;;;;;;10.73;2.25;;;;;;;-2.87;84.05;102080.44;5033018;28;20029;-77
2022/01/21 03:12:52;;;;;;;10.35;1.77;;;;;;;-3.05;84.24;102059.13;5032947;28;20036;-78
2022/01/21 03:15:18;;;;;;;7.22;1.23;;;;;;;-2.99;84.67;102089.47;5049542;28;20899;-77
2022/01/21 03:17:43;;;;;;;8.07;1.73;;;;;;;-3.08;84.98;102079.28;5030510;28;20029;-77
2022/01/21 03:20:09;;;;;;;10.20;1.63;;;;;;;-3.16;85.41;102084.72;5049679;28;20033;-78
2022/01/21 03:22:36;;;;;;;6.93;1.38;;;;;;;-3.12;85.82;102106.38;5049288;28;20040;-76
2022/01/21 03:25:03;;;;;;;7.03;1.48;;;;;;;-3.21;86.10;102100.53;5040835;28;20023;-78
2022/01/21 03:27:28;;;;;;;11.23;1.40;;;;;;;-3.16;86.67;102117.81;5033048;28;20045;-77
2022/01/21 03:29:54;;;;;;;17.08;2.72;;;;;;;-3.10;87.29;102128.97;5033099;28;20035;-78
2022/01/21 03:32:20;;;;;;;10.05;2.22;;;;;;;-2.92;87.84;102150.28;5050277;28;20041;-79
2022/01/21 03:34:45;;;;;;;7.05;1.77;;;;;;;-2.83;88.13;102145.66;5033259;28;20024;-78
2022/01/21 03:37:11;;;;;;;7.05;2.03;;;;;;;-2.79;88.08;102130.72;5033573;28;20037;-78
2022/01/21 03:39:37;;;;;;;17.17;3.10;;;;;;;-2.75;88.29;102140.22;5030544;28;20033;-77
2022/01/21 03:42:02;;;;;;;23.60;3.13;;;;;;;-2.68;88.15;102139.13;5031326;28;20071;-77
2022/01/21 03:44:28;;;;;;;22.00;2.15;;;;;;;-2.61;88.31;102137.22;5031320;28;20090;-80
2022/01/21 03:46:54;;;;;;;;;;;;;;;-2.62;88.35;102123.28;5032106;28;20406;-78
2022/01/21 03:49:20;;;;;;;7.45;1.85;;;;;;;-2.82;88.39;102097.69;5048324;28;19913;-78
2022/01/21 03:51:46;;;;;;;17.33;2.33;;;;;;;-2.83;88.32;102110.84;5048024;28;20039;-80
2022/01/21 03:54:11;;;;;;;13.55;2.30;;;;;;;-2.86;88.98;102111.75;5031052;28;20073;-78
2022/01/21 03:56:39;;;;;;;10.15;1.52;;;;;;;-2.91;88.86;102113.63;5049439;28;20733;-77
2022/01/21 03:59:04;;;;;;;6.65;2.50;;;;;;;-2.91;89.03;102118.84;5048177;28;20029;-78
2022/01/21 04:01:30;;;;;;;7.57;2.92;;;;;;;-2.91;89.54;102118.00;5047724;28;20037;-79
2022/01/21 04:03:55;;;;;;;18.27;3.00;;;;;;;-2.96;89.88;102125.97;5047687;28;20104;-77
2022/01/21 04:06:21;;;;;;;13.02;2.30;;;;;;;-2.90;90.01;102131.03;5028130;28;20029;-77
2022/01/21 04:08:46;;;;;;;15.55;3.03;;;;;;;-2.90;90.26;102112.75;5028501;28;20520;-77
2022/01/21 04:11:12;;;;;;;12.27;2.08;;;;;;;-2.84;90.29;102123.03;5047987;28;20746;-77
2022/01/21 04:13:43;;;;;;;7.20;1.88;;;;;;;-2.79;90.20;102112.44;5031403;28;20036;-79
2022/01/21 04:16:11;;;;;;;10.90;2.00;;;;;;;-2.85;90.01;102096.94;5047604;28;20025;-77
2022/01/21 04:18:37;;;;;;;;;;;;;;;-2.62;89.83;102110.22;5048472;28;20021;-80
2022/01/21 04:21:06;;;;;;;7.90;1.75;;;;;;;-2.66;88.96;102079.81;5039558;28;19912;-77
2022/01/21 04:23:33;;;;;;;13.63;2.25;;;;;;;-2.51;88.87;102080.25;5047629;28;20136;-80
2022/01/21 04:25:58;;;;;;;12.65;2.85;;;;;;;-2.62;88.53;102046.59;5030824;28;20170;-78
2022/01/21 04:28:24;;;;;;;8.93;2.63;;;;;;;-2.59;88.56;102049.97;5031069;28;20041;-78
2022/01/21 04:30:50;;;;;;;24.90;3.10;;;;;;;-2.69;87.96;102025.00;5047019;28;20037;-76
2022/01/21 04:33:18;;;;;;;12.48;2.33;;;;;;;-2.68;88.10;102026.72;5047627;28;20040;-77
2022/01/21 04:35:54;;;;;;;7.22;1.75;;;;;;;-2.66;87.75;102031.91;5031936;28;20033;-78
2022/01/21 04:38:22;;;;;;;7.90;1.83;;;;;;;-2.51;87.83;102039.28;5047191;28;20040;-78
2022/01/21 04:40:56;;;;;;;25.45;4.15;;;;;;;-2.45;87.80;102040.84;5029905;28;20843;-80
2022/01/21 04:49:04;;;;;;;5.88;2.35;;;;;;;-2.49;87.24;102021.78;5032720;28;20072;-78
2022/01/21 04:51:37;;;;;;;9.70;1.42;;;;;;;-2.58;87.20;102019.44;5030615;28;20052;-78
2022/01/21 04:54:04;;;;;;;11.50;2.25;;;;;;;-2.58;87.30;102017.69;5030333;28;20116;-78
2022/01/21 04:56:31;;;;;;;8.95;2.63;;;;;;;-2.55;87.04;102038.53;5030548;28;20021;-80
2022/01/21 04:58:57;;;;;;;8.10;1.90;;;;;;;-2.59;87.06;102023.81;5030444;28;20029;-77
2022/01/21 05:01:22;;;;;;;8.82;1.60;;;;;;;-2.49;87.17;102049.69;5029928;28;20463;-81
2022/01/21 05:03:50;;;;;;;14.02;2.55;;;;;;;-2.51;87.42;102043.66;5046664;28;20494;-76
2022/01/21 05:06:16;;;;;;;9.93;1.95;;;;;;;-2.49;87.48;102065.38;5046748;28;20023;-78
2022/01/21 05:08:47;;;;;;;14.57;2.85;;;;;;;-2.40;87.48;102081.66;5046759;28;20032;-81
2022/01/21 05:11:16;;;;;;;10.85;2.17;;;;;;;-2.50;87.44;102058.47;5026657;28;20064;-80
2022/01/21 05:13:44;;;;;;;10.32;1.88;;;;;;;-2.47;87.51;102059.19;5027006;28;20075;-77
2022/01/21 05:18:58;;;;;;;14.25;2.47;;;;;;;-2.55;87.59;102059.44;5046560;28;20163;-78
2022/01/21 05:21:48;;;;;;;24.15;2.65;;;;;;;-2.50;87.66;102071.53;5046596;28;20029;-80
2022/01/21 05:24:21;;;;;;;8.35;2.67;;;;;;;-2.40;87.50;102093.88;5046195;28;20032;-78
2022/01/21 05:26:53;;;;;;;14.25;2.70;;;;;;;-2.47;87.50;102093.19;5046469;28;20923;-81
2022/01/21 05:29:23;;;;;;;4.47;1.27;;;;;;;-2.40;87.16;102099.97;5045915;28;20095;-79
2022/01/21 05:31:59;;;;;;;14.15;3.15;;;;;;;-2.40;87.22;102104.34;5030976;28;20024;-80
2022/01/21 05:34:51;;;;;;;12.25;2.38;;;;;;;-2.42;86.99;102091.31;5046297;28;20548;-77
2022/01/21 05:37:20;;;;;;;11.88;2.65;;;;;;;-2.60;86.63;102061.34;5046465;28;20036;-78
2022/01/21 05:40:05;;;;;;;4.65;2.10;;;;;;;-2.61;87.10;102067.47;5031805;28;20031;-78
2022/01/21 05:42:51;;;;;;;10.48;1.83;;;;;;;-2.37;86.65;102083.31;5047089;28;20044;-78
2022/01/21 05:48:55;;;;;;;10.73;2.08;;;;;;;-2.45;85.94;102033.00;5025515;28;20049;-78
2022/01/21 05:51:26;;;;;;;8.52;2.33;;;;;;;-2.38;85.79;102039.75;5042470;28;20473;-77
2022/01/21 05:54:15;;;;;;;5.45;1.40;;;;;;;-2.33;85.46;102024.78;5034561;28;20043;-77
2022/01/21 05:56:53;;;;;;;10.40;1.27;;;;;;;-2.28;84.78;102009.78;5046504;28;20036;-78
2022/01/21 05:59:29;;;;;;;13.75;1.42;;;;;;;-2.36;84.49;101981.25;5047299;28;20033;-76
2022/01/21 06:01:55;;;;;;;11.10;3.28;;;;;;;-2.25;84.13;101978.28;5029999;28;20659;-79
2022/01/21 06:04:21;;;;;;;3.95;1.48;;;;;;;-2.22;83.84;101978.19;5029861;28;20036;-78
2022/01/21 06:06:46;;;;;;;6.65;1.52;;;;;;;-2.17;83.61;101978.91;5046593;28;20056;-77
2022/01/21 06:09:12;;;;;;;5.20;1.50;;;;;;;-2.13;83.04;101954.34;5026738;28;20073;-77
2022/01/21 06:11:37;;;;;;;6.97;1.55;;;;;;;-2.21;82.79;101932.81;5026849;28;20044;-79
2022/01/21 06:14:03;;;;;;;6.97;1.27;;;;;;;-2.18;82.69;101935.34;5029271;28;20466;-78
2022/01/21 06:16:29;;;;;;;9.95;1.52;;;;;;;-2.24;82.66;101938.16;5029874;28;20037;-77
2022/01/21 06:18:55;;;;;;;21.05;1.88;;;;;;;-2.44;82.47;101925.72;5029624;28;20039;-77
2022/01/21 06:21:21;;;;;;;8.95;1.00;;;;;;;-2.33;82.66;101948.91;5046230;28;20445;-76
2022/01/21 06:23:46;;;;;;;10.38;1.75;;;;;;;-2.36;82.47;101952.50;5029663;28;20032;-78
2022/01/21 06:26:12;;;;;;;7.43;1.63;;;;;;;-2.33;82.61;101948.91;5029951;28;20032;-80
2022/01/21 06:28:37;;;;;;;9.90;2.28;;;;;;;-2.31;82.63;101967.19;5029617;28;20098;-80
2022/01/21 06:31:03;;;;;;;9.52;1.50;;;;;;;-2.44;82.52;101946.63;5026516;28;20079;-79
2022/01/21 06:33:28;;;;;;;6.15;1.15;;;;;;;-2.36;82.61;101959.50;5045257;28;20082;-79
2022/01/21 06:35:53;;;;;;;9.37;2.47;;;;;;;-2.25;82.48;101980.91;5029872;28;20026;-77
2022/01/21 06:38:21;;;;;;;18.38;2.53;;;;;;;-2.13;82.40;101979.66;5037630;28;20305;-77
2022/01/21 06:40:48;;;;;;;11.00;2.25;;;;;;;-2.12;82.07;101960.44;5049545;28;20059;-78
2022/01/21 06:43:14;;;;;;;9.48;1.55;;;;;;;-2.25;82.01;101932.97;5050018;28;20021;-78
2022/01/21 06:45:40;;;;;;;3.88;1.73;;;;;;;-2.40;81.89;101905.56;5032494;28;20115;-78
2022/01/21 06:48:06;;;;;;;5.20;1.17;;;;;;;-2.36;82.07;101933.34;5029607;28;20399;-77
2022/01/21 06:50:32;;;;;;;;;;;;;;;-2.51;82.26;101934.66;5033269;28;20159;-77
2022/01/21 06:52:58;;;;;;;9.95;1.40;;;;;;;-2.61;82.64;101928.88;5049428;28;19920;-79
2022/01/21 06:55:23;;;;;;;4.90;1.17;;;;;;;-2.62;82.95;101955.09;5048836;28;20036;-79
2022/01/21 06:57:49;;;;;;;9.48;1.33;;;;;;;-2.47;82.70;101972.91;5032469;28;20029;-78
2022/01/21 07:00:18;;;;;;;5.65;1.15;;;;;;;-2.51;82.63;101954.72;5048840;28;20501;-78
2022/01/21 07:02:47;;;;;;;6.15;1.20;;;;;;;-2.44;82.35;101962.31;5048189;28;20029;-78
2022/01/21 07:05:13;;;;;;;6.13;1.40;;;;;;;-2.35;82.35;101972.50;5032685;28;20126;-79
2022/01/21 07:07:38;;;;;;;14.68;1.98;;;;;;;-2.37;82.28;101957.75;5049971;28;20437;-78
2022/01/21 07:10:06;;;;;;;6.70;1.90;;;;;;;-2.44;82.33;101958.88;5049885;28;20033;-78
2022/01/21 07:12:32;;;;;;;3.33;1.50;;;;;;;-2.52;82.14;101948.66;5049867;28;20033;-78
2022/01/21 07:14:58;;;;;;;6.32;1.35;;;;;;;-2.57;82.32;101947.94;5049689;28;20029;-78
2022/01/21 07:17:23;;;;;;;11.82;1.75;;;;;;;-2.60;82.42;101961.09;5034219;28;20517;-79
2022/01/21 07:19:49;;;;;;;10.13;1.40;;;;;;;-2.57;82.60;101974.09;5051688;28;20051;-77
2022/01/21 07:22:14;;;;;;;11.00;1.40;;;;;;;-2.54;82.41;101971.38;5050597;28;20110;-77
2022/01/21 07:24:40;;;;;;;12.32;2.25;;;;;;;-2.55;82.39;101962.69;5050238;28;20044;-78
2022/01/21 07:27:05;;;;;;;8.10;1.55;;;;;;;-2.56;82.24;101968.81;5034550;28;20041;-77
2022/01/21 07:29:31;;;;;;;5.32;1.33;;;;;;;-2.54;82.27;101971.38;5034066;28;20043;-77
2022/01/21 07:31:56;;;;;;;9.70;2.85;;;;;;;-2.64;82.19;101965.59;5033720;28;20044;-78
2022/01/21 07:34:24;;;;;;;7.68;2.78;;;;;;;-2.65;82.52;101976.09;5030561;28;20526;-79
2022/01/21 07:36:49;;;;;;;9.32;1.65;;;;;;;-2.74;82.77;101979.81;5050463;28;20668;-78
2022/01/21 07:39:15;;;;;;;4.97;1.17;;;;;;;-2.77;82.94;101999.06;5042128;28;20127;-78
2022/01/21 07:41:40;;;;;;;7.05;1.48;;;;;;;-2.74;83.29;102032.13;5050369;28;20037;-78
2022/01/21 07:44:06;;;;;;;4.97;1.98;;;;;;;-2.63;83.06;102050.97;5033356;28;20059;-79
2022/01/21 07:46:31;;;;;;;9.50;1.75;;;;;;;-2.56;83.24;102047.25;5049970;28;20094;-77
2022/01/21 07:48:59;;;;;;;4.10;1.42;;;;;;;-2.46;82.82;102049.59;5033307;28;20029;-78
2022/01/21 07:51:25;;;;;;;10.75;1.38;;;;;;;-2.32;82.48;102060.47;5049919;28;20025;-79
2022/01/21 07:53:50;;;;;;;10.20;1.60;;;;;;;-2.08;82.29;102071.06;5049175;28;20041;-79
2022/01/21 07:56:16;;;;;;;5.00;1.30;;;;;;;-1.66;81.81;102081.06;5049677;28;20123;-78
2022/01/21 07:58:41;;;;;;;6.45;1.95;;;;;;;-1.62;80.99;102025.06;5033384;28;20020;-78
2022/01/21 08:01:06;;;;;;;5.85;1.38;;;;;;;-1.56;80.07;101982.97;5049891;28;20037;-77
2022/01/21 08:03:32;;;;;;;5.30;1.35;;;;;;;-1.32;79.60;101979.44;5049034;28;20405;-78
2022/01/21 08:05:57;;;;;;;12.73;2.67;;;;;;;-0.92;78.82;101975.34;5049002;28;20032;-79
2022/01/21 08:08:24;;;;;;;8.05;2.13;;;;;;;-0.44;77.94;101982.22;5049376;28;20033;-81
2022/01/21 08:10:50;;;;;;;6.82;1.48;;;;;;;-0.11;76.79;101946.78;5048464;28;20037;-79
2022/01/21 08:13:15;;;;;;;6.82;1.20;;;;;;;0.07;75.34;101879.47;5031770;28;20036;-79
2022/01/21 08:15:40;;;;;;;7.90;2.37;;;;;;;0.17;73.96;101815.16;5028142;28;20144;-79
2022/01/21 08:18:06;;;;;;;5.27;1.60;;;;;;;-0.48;73.59;101702.50;5050346;28;20779;-78
2022/01/21 08:20:31;;;;;;;6.25;1.98;;;;;;;-1.05;74.14;101714.63;5032169;28;20366;-78
2022/01/21 08:22:57;;;;;;;5.43;1.52;;;;;;;-0.98;74.27;101771.09;5032126;28;20089;-81
2022/01/21 08:25:23;;;;;;;7.65;2.30;;;;;;;-0.61;74.50;101827.25;5048524;28;20041;-81
2022/01/21 08:27:48;;;;;;;6.55;1.27;;;;;;;-0.10;73.54;101833.81;5031813;28;20035;-79
2022/01/21 08:30:14;;;;;;;6.97;1.17;;;;;;;0.14;72.22;101789.00;5029133;28;20458;-79
2022/01/21 08:32:39;;;;;;;;;;;;;;;0.30;72.08;101790.00;5048135;28;20199;-79
2022/01/21 08:35:06;;;;;;;7.38;1.58;;;;;;;0.63;71.08;101771.84;5036090;28;20421;-79
2022/01/21 08:37:31;;;;;;;7.60;1.90;;;;;;;0.76;70.03;101716.88;5043507;28;20029;-78
2022/01/21 08:39:57;;;;;;;8.77;1.87;;;;;;;0.98;69.16;101694.75;5047137;28;20095;-79
2022/01/21 08:42:22;;;;;;;4.53;1.43;;;;;;;1.71;67.72;101697.13;5029970;28;20076;-80
2022/01/21 08:44:48;;;;;;;10.00;2.70;;;;;;;2.17;65.73;101615.59;5029074;28;20290;-80
2022/01/21 08:47:15;;;;;;;7.50;1.57;;;;;;;2.48;64.60;101583.91;5047338;28;20658;-77
2022/01/21 08:49:41;;;;;;;8.05;1.40;;;;;;;3.06;63.41;101576.09;5027523;28;20041;-79
2022/01/21 08:52:06;;;;;;;10.80;1.70;;;;;;;3.92;62.04;101570.69;5030389;28;20162;-78
2022/01/21 08:54:32;;;;;;;9.30;1.58;;;;;;;3.51;59.96;101349.75;5045730;28;20852;-79
2022/01/21 08:56:57;;;;;;;5.57;1.25;;;;;;;2.89;59.63;101256.19;5030260;28;20036;-79
2022/01/21 08:59:23;;;;;;;4.60;1.40;;;;;;;2.32;60.51;101303.78;5026912;28;20036;-79
2022/01/21 09:01:49;;;;;;;7.25;1.65;;;;;;;3.43;60.55;101477.00;5028673;28;20119;-79
2022/01/21 09:04:15;;;;;;;6.55;1.30;;;;;;;4.06;58.58;101404.16;5026177;28;20075;-78
2022/01/21 09:06:41;;;;;;;6.35;1.52;;;;;;;3.57;57.90;101264.88;5045765;28;20398;-77
2022/01/21 09:09:07;;;;;;;6.75;1.67;;;;;;;3.73;57.68;101288.44;5045555;28;20036;-79
2022/01/21 09:11:33;;;;;;;2.90;1.00;;;;;;;4.76;56.81;101368.50;5046310;28;20044;-79
2022/01/21 09:13:59;;;;;;;5.57;2.00;;;;;;;4.54;56.07;101280.09;5046261;28;20025;-79
2022/01/21 09:16:24;;;;;;;4.70;1.23;;;;;;;4.59;55.85;101288.53;5030791;28;20041;-78
2022/01/21 09:18:59;;;;;;;5.10;1.20;;;;;;;4.94;55.61;101286.91;5029324;28;20102;-78
2022/01/21 09:21:27;;;;;;;6.00;2.10;;;;;;;5.10;54.71;101249.59;5029255;28;20423;-79
2022/01/21 09:23:54;;;;;;;10.38;2.10;;;;;;;5.18;54.75;101281.63;5029261;28;20075;-80
2022/01/21 09:26:23;;;;;;;4.72;1.58;;;;;;;5.20;54.19;101209.09;5029619;28;20072;-79
2022/01/21 09:28:49;;;;;;;4.72;1.13;;;;;;;5.03;53.27;101101.00;5046445;28;20051;-78
2022/01/21 09:31:16;;;;;;;4.15;1.30;;;;;;;4.89;54.21;101210.53;5029199;28;20021;-80
2022/01/21 09:33:42;;;;;;;9.90;1.50;;;;;;;5.57;53.55;101258.38;5045572;28;20055;-78
2022/01/21 09:36:09;;;;;;;4.15;1.42;;;;;;;6.22;52.90;101268.31;5047042;28;20028;-81
2022/01/21 09:38:34;;;;;;;5.63;2.15;;;;;;;6.41;51.81;101195.25;5046118;28;20104;-78
2022/01/21 09:41:01;;;;;;;7.23;1.20;;;;;;;6.97;51.26;101214.47;5045663;28;20136;-77
2022/01/21 09:43:26;;;;;;;3.67;1.20;;;;;;;7.68;49.90;101200.53;5044757;28;20029;-78
2022/01/21 09:45:55;;;;;;;8.47;1.40;;;;;;;7.78;48.87;101115.53;5044812;28;20032;-78
2022/01/21 09:48:25;;;;;;;5.45;2.15;;;;;;;7.40;48.59;101002.84;5045020;28;20107;-77
2022/01/21 09:50:54;;;;;;;5.60;1.38;;;;;;;6.81;49.14;100963.75;5028254;28;20087;-77
2022/01/21 09:53:28;;;;;;;4.72;2.53;;;;;;;6.73;49.63;101020.16;5044962;28;20017;-78
2022/01/21 09:55:59;;;;;;;5.43;1.27;;;;;;;6.88;49.83;101081.69;5027137;28;20030;-77
2022/01/21 09:58:29;;;;;;;12.95;2.10;;;;;;;6.89;49.71;101070.09;5028464;28;20032;-78
2022/01/21 10:00:56;;;;;;;5.22;1.20;;;;;;;6.95;49.46;101051.84;5045946;28;20060;-78
2022/01/21 10:03:22;;;;;;;4.72;1.55;;;;;;;6.50;49.17;100931.91;5044996;28;20094;-77
2022/01/21 10:05:49;;;;;;;5.25;1.67;;;;;;;6.33;49.77;100992.53;5027745;28;20045;-77
2022/01/21 10:08:16;;;;;;;5.88;1.15;;;;;;;6.03;50.15;100948.22;5048773;28;20037;-77
2022/01/21 10:10:44;;;;;;;2.90;0.90;;;;;;;6.96;50.16;101167.66;5048837;28;20036;-78
2022/01/21 10:13:15;;;;;;;5.22;0.95;;;;;;;6.45;49.55;100980.03;5050143;28;20474;-78
2022/01/21 10:15:40;;;;;;;5.53;1.42;;;;;;;6.23;50.14;101001.41;5031774;28;20064;-78
2022/01/21 10:18:10;;;;;;;7.00;1.23;;;;;;;6.66;50.16;101112.69;5032408;28;20056;-78
2022/01/21 10:20:37;;;;;;;6.95;1.42;;;;;;;5.61;50.05;100889.00;5032097;28;20039;-78
2022/01/21 10:23:08;;;;;;;7.30;1.95;;;;;;;6.09;50.65;101090.03;5040595;28;20725;-78
2022/01/21 10:25:35;;;;;;;6.03;0.98;;;;;;;6.30;50.24;101098.88;5028692;28;20037;-77
2022/01/21 10:28:21;;;;;;;4.85;1.60;;;;;;;7.12;49.50;101175.19;5049615;28;20649;-77
2022/01/21 10:30:48;;;;;;;4.95;1.48;;;;;;;7.74;48.61;101133.53;5048644;28;20930;-78
2022/01/21 10:33:23;;;;;;;6.13;1.10;;;;;;;7.61;48.09;101032.81;5049403;28;20021;-78
2022/01/21 10:35:50;;;;;;;7.97;2.40;;;;;;;7.12;47.84;100968.09;5048800;28;20052;-78
2022/01/21 10:38:28;;;;;;;4.00;1.00;;;;;;;6.57;49.08;100994.06;5031982;28;20071;-78
2022/01/21 10:41:09;;;;;;;6.90;1.20;;;;;;;7.36;49.03;101134.22;5048064;28;20114;-78
2022/01/21 10:43:35;;;;;;;7.25;1.30;;;;;;;8.08;48.98;101262.69;5048537;28;20040;-79
2022/01/21 10:46:01;;;;;;;13.75;2.92;;;;;;;8.51;47.62;101176.47;5031577;28;20562;-78
2022/01/21 10:48:32;;;;;;;8.07;1.80;;;;;;;8.32;47.79;101124.88;5031924;28;20919;-77
2022/01/21 10:51:19;;;;;;;8.63;1.25;;;;;;;8.49;47.77;101144.66;5047868;28;20152;-78
2022/01/21 10:53:44;;;;;;;3.03;1.10;;;;;;;8.21;47.80;101046.03;5031218;28;20033;-78
2022/01/21 10:56:13;;;;;;;5.00;1.55;;;;;;;8.19;48.00;101079.94;5048281;28;20520;-79
2022/01/21 10:58:51;;;;;;;9.70;1.83;;;;;;;8.08;48.63;101135.03;5048298;28;20044;-79
2022/01/21 11:01:21;;;;;;;3.67;1.48;;;;;;;8.17;48.42;101104.94;5048240;28;20047;-77
2022/01/21 11:04:09;;;;;;;11.40;1.55;;;;;;;8.14;48.59;101151.28;5048398;28;20025;-78
2022/01/21 11:06:47;;;;;;;6.72;1.42;;;;;;;8.31;48.91;101194.16;5041732;28;20033;-78
2022/01/21 11:09:24;;;;;;;5.05;1.00;;;;;;;8.44;48.43;101142.41;5041959;28;20033;-79
2022/01/21 11:12:19;;;;;;;8.00;1.13;;;;;;;8.37;48.85;101153.72;5050016;28;20064;-78
2022/01/21 11:15:05;;;;;;;5.72;1.17;;;;;;;8.27;48.88;101135.09;5030553;28;20044;-78
2022/01/21 11:17:30;;;;;;;;;;;;;;;8.60;48.95;101205.75;5048642;28;20437;-77
2022/01/21 11:20:06;;;;;;;3.30;1.33;;;;;;;8.31;48.65;101087.75;5047628;28;19924;-77
2022/01/21 11:22:50;;;;;;;5.85;1.52;;;;;;;7.76;49.56;101064.31;5048050;28;20047;-78
2022/01/21 11:25:16;;;;;;;2.13;0.77;;;;;;;7.38;50.35;101079.16;5041270;28;20108;-77
2022/01/21 11:27:55;;;;;;;7.57;1.10;;;;;;;8.06;50.52;101254.03;5030774;28;20471;-78
2022/01/21 11:30:21;;;;;;;5.30;1.13;;;;;;;7.77;50.48;101156.34;5047190;28;20445;-77
2022/01/21 11:32:46;;;;;;;6.45;1.42;;;;;;;7.59;51.19;101193.38;5030876;28;20358;-77
2022/01/21 11:35:11;;;;;;;11.40;1.50;;;;;;;7.64;51.37;101256.75;5047717;28;20777;-77
2022/01/21 11:37:37;;;;;;;8.93;1.57;;;;;;;7.71;51.44;101261.41;5047363;28;20036;-78
2022/01/21 11:40:04;;;;;;;5.50;1.47;;;;;;;7.96;51.62;101333.72;5048381;28;20039;-78
2022/01/21 11:42:30;;;;;;;7.78;1.88;;;;;;;8.14;51.17;101316.19;5047332;28;20318;-77
2022/01/21 11:45:14;;;;;;;6.53;1.67;;;;;;;7.84;51.32;101237.25;5046437;28;20029;-78
2022/01/21 11:48:12;;;;;;;6.60;1.70;;;;;;;7.79;51.31;101229.66;5048346;28;20037;-77
2022/01/21 11:50:33;;;;;;;10.07;1.50;;;;;;;7.77;52.46;101347.75;5046335;28;20037;-78
2022/01/21 11:52:58;;;;;;;10.27;1.50;;;;;;;7.84;52.57;101351.56;5030112;28;20032;-78
2022/01/21 11:55:33;;;;;;;5.83;2.30;;;;;;;8.01;52.66;101377.56;5026047;28;20514;-78
2022/01/21 11:58:17;;;;;;;7.93;2.00;;;;;;;7.85;53.11;101347.94;5063111;28;20074;-78
2022/01/21 12:00:44;;;;;;;6.00;1.98;;;;;;;7.19;54.63;101382.66;5030205;28;20131;-78
2022/01/21 12:03:10;;;;;;;8.18;2.33;;;;;;;7.50;54.66;101465.16;5030150;28;20017;-78
2022/01/21 12:05:35;;;;;;;9.77;2.30;;;;;;;7.22;55.20;101424.06;5046469;28;20043;-78
2022/01/21 12:08:05;;;;;;;7.43;2.47;;;;;;;6.58;56.32;101404.34;5047157;28;20107;-77
2022/01/21 12:10:36;;;;;;;8.55;2.10;;;;;;;6.19;57.56;101466.59;5046199;28;20047;-77
2022/01/21 12:13:11;;;;;;;14.82;2.33;;;;;;;5.83;59.32;101571.72;5039784;28;20037;-77
2022/01/21 12:15:52;;;;;;;9.23;2.45;;;;;;;6.20;59.72;101678.59;5046585;28;20045;-77
2022/01/21 12:21:45;;;;;;;5.88;2.30;;;;;;;7.35;58.86;101778.91;5039888;28;20048;-77
2022/01/21 12:24:11;;;;;;;14.15;3.03;;;;;;;7.72;57.81;101728.22;5018555;28;20098;-77
2022/01/21 12:26:54;;;;;;;13.63;1.83;;;;;;;7.55;57.84;101687.03;5029826;28;20922;-77